Time;durP1;ratioP1;P1;durP2;ratioP2;P2;SDS_P1;SDS_P2;PMS_P1;PMS_P2;Temp;Humidity;BMP_temperature;BMP_pressure;BME280_temperature;BME280_humidity;BME280_pressure;Samples;Min_cycle;Max_cycle;Signal;HPM_P1;HPM_P2
2021/01/21 00:00:37;;;;;;;3.47;0.67;;;7.70;51.70;;;;;;5064470;28;20421;-82
2021/01/21 00:03:03;;;;;;;1.23;0.67;;;7.70;52.10;;;;;;5070219;28;20025;-82
2021/01/21 00:05:29;;;;;;;1.20;0.63;;;7.70;52.10;;;;;;5068772;28;20040;-82
2021/01/21 00:07:54;;;;;;;1.10;0.70;;;7.70;52.00;;;;;;5060980;28;20043;-82
2021/01/21 00:10:20;;;;;;;1.03;0.60;;;7.80;52.30;;;;;;5068581;28;20092;-82
2021/01/21 00:12:46;;;;;;;1.27;0.60;;;7.80;52.00;;;;;;5060423;28;20525;-82
2021/01/21 00:15:12;;;;;;;1.70;0.77;;;7.80;52.10;;;;;;5067073;28;20387;-82
2021/01/21 00:17:38;;;;;;;3.43;0.70;;;7.80;51.90;;;;;;5069045;28;20440;-82
2021/01/21 00:20:05;;;;;;;1.30;0.70;;;7.80;52.00;;;;;;5060830;28;20090;-82
2021/01/21 00:22:34;;;;;;;1.23;0.50;;;7.90;52.20;;;;;;5065413;28;20020;-82
2021/01/21 00:25:00;;;;;;;2.10;0.67;;;7.80;51.60;;;;;;5054774;28;20078;-82
2021/01/21 00:27:26;;;;;;;1.23;0.70;;;7.90;52.10;;;;;;5071716;28;20036;-82
2021/01/21 00:29:52;;;;;;;1.37;0.60;;;8.00;52.00;;;;;;5069865;28;20034;-82
2021/01/21 00:32:18;;;;;;;1.27;0.67;;;8.00;52.40;;;;;;5061567;28;20437;-82
2021/01/21 00:34:43;;;;;;;2.50;1.20;;;7.90;51.80;;;;;;5059206;28;20033;-82
2021/01/21 00:37:09;;;;;;;2.90;0.77;;;7.70;51.80;;;;;;5064047;28;20653;-82
2021/01/21 00:39:35;;;;;;;2.03;0.70;;;7.70;52.30;;;;;;5065747;28;20028;-82
2021/01/21 00:42:00;;;;;;;1.73;0.70;;;7.80;52.20;;;;;;5067753;28;20039;-82
2021/01/21 00:44:26;;;;;;;0.90;0.40;;;7.70;52.00;;;;;;5064050;28;20622;-82
2021/01/21 00:46:52;;;;;;;1.67;0.77;;;7.60;52.30;;;;;;5061469;28;20029;-82
2021/01/21 00:49:17;;;;;;;1.20;0.60;;;7.60;52.10;;;;;;5069846;28;20024;-82
2021/01/21 00:51:43;;;;;;;2.03;0.67;;;7.60;52.40;;;;;;5067810;28;20029;-82
2021/01/21 00:54:09;;;;;;;1.30;0.60;;;7.60;52.30;;;;;;5071386;28;20028;-81
2021/01/21 00:56:34;;;;;;;1.23;0.77;;;7.50;52.20;;;;;;5060145;28;20032;-81
2021/01/21 00:59:00;;;;;;;0.90;0.60;;;7.50;52.00;;;;;;5069387;28;20873;-81
2021/01/21 01:01:26;;;;;;;1.60;0.60;;;7.50;51.80;;;;;;5064346;28;20040;-81
2021/01/21 01:03:51;;;;;;;0.83;0.57;;;7.60;51.70;;;;;;5059709;28;20116;-81
2021/01/21 01:06:17;;;;;;;2.20;0.73;;;7.60;51.50;;;;;;5062330;28;20029;-81
2021/01/21 01:08:43;;;;;;;1.50;0.57;;;7.60;51.60;;;;;;5072211;28;20530;-81
2021/01/21 01:11:09;;;;;;;0.90;0.50;;;7.70;51.70;;;;;;5070230;28;20640;-81
2021/01/21 01:13:35;;;;;;;2.30;0.57;;;7.60;51.40;;;;;;5069328;28;20055;-81
2021/01/21 01:16:01;;;;;;;1.87;0.53;;;7.80;51.20;;;;;;5065079;28;20032;-81
2021/01/21 01:18:26;;;;;;;2.57;0.70;;;7.70;51.30;;;;;;5064602;28;20033;-82
2021/01/21 01:20:52;;;;;;;1.80;1.03;;;7.80;51.40;;;;;;5063546;28;20084;-82
2021/01/21 01:23:18;;;;;;;0.90;0.50;;;7.80;51.50;;;;;;5066823;28;20489;-82
2021/01/21 01:25:43;;;;;;;1.27;0.30;;;7.70;51.60;;;;;;5063881;28;20069;-82
2021/01/21 01:28:09;;;;;;;1.63;0.80;;;7.60;51.80;;;;;;5063399;28;20078;-82
2021/01/21 01:30:35;;;;;;;2.10;0.97;;;7.60;51.90;;;;;;5071145;28;20063;-82
2021/01/21 01:33:00;;;;;;;0.73;0.37;;;7.60;52.10;;;;;;5071102;28;20043;-82
2021/01/21 01:35:26;;;;;;;0.87;0.43;;;7.60;52.00;;;;;;5071032;28;20047;-82
2021/01/21 01:37:52;;;;;;;0.97;0.50;;;7.80;51.70;;;;;;5060175;28;20021;-82
2021/01/21 01:40:17;;;;;;;0.87;0.40;;;7.90;50.80;;;;;;5055106;28;20017;-82
2021/01/21 01:42:44;;;;;;;2.13;0.37;;;8.00;50.40;;;;;;5071989;28;20074;-82
2021/01/21 01:45:11;;;;;;;1.10;0.37;;;8.10;50.50;;;;;;5071525;28;20204;-82
2021/01/21 01:47:40;;;;;;;0.90;0.40;;;8.20;49.90;;;;;;5058035;28;20036;-82
2021/01/21 01:50:08;;;;;;;0.87;0.30;;;8.20;49.50;;;;;;5059289;28;20025;-82
2021/01/21 01:52:41;;;;;;;0.93;0.53;;;8.20;49.70;;;;;;5068737;28;20040;-82
2021/01/21 01:55:11;;;;;;;0.80;0.40;;;8.20;49.90;;;;;;5054140;28;20037;-82
2021/01/21 01:57:37;;;;;;;1.77;0.50;;;8.30;49.80;;;;;;5068087;28;20024;-82
2021/01/21 02:00:05;;;;;;;1.43;0.43;;;8.40;49.90;;;;;;5060882;28;20031;-82
2021/01/21 02:02:31;;;;;;;0.60;0.40;;;8.40;49.80;;;;;;5059514;28;20033;-82
2021/01/21 02:04:57;;;;;;;1.87;0.70;;;8.40;50.00;;;;;;5063368;28;20012;-82
2021/01/21 02:07:22;;;;;;;1.10;0.57;;;8.50;50.00;;;;;;5067012;28;20029;-82
2021/01/21 02:09:49;;;;;;;0.97;0.53;;;8.60;50.10;;;;;;5055494;28;20035;-82
2021/01/21 02:12:41;;;;;;;2.77;0.50;;;8.60;50.10;;;;;;5065984;28;20029;-82
2021/01/21 02:15:21;;;;;;;0.90;0.40;;;8.70;50.00;;;;;;5057936;28;20063;-82
2021/01/21 02:18:16;;;;;;;0.67;0.40;;;8.50;49.70;;;;;;5060567;28;20458;-82
2021/01/21 02:21:07;;;;;;;0.97;0.47;;;8.50;50.00;;;;;;5070173;28;20036;-82
2021/01/21 02:23:54;;;;;;;1.23;0.40;;;8.40;49.50;;;;;;5064947;28;20032;-82
2021/01/21 02:26:34;;;;;;;0.50;0.30;;;8.40;49.30;;;;;;5062382;28;20394;-81
2021/01/21 02:29:21;;;;;;;0.77;0.37;;;8.50;49.20;;;;;;5058702;28;20031;-82
2021/01/21 02:32:08;;;;;;;1.33;0.40;;;8.40;49.40;;;;;;5066142;28;20090;-82
2021/01/21 02:34:47;;;;;;;1.03;0.40;;;8.30;49.80;;;;;;5063589;28;20043;-82
2021/01/21 02:37:24;;;;;;;0.50;0.33;;;8.20;50.10;;;;;;5059397;28;20032;-82
2021/01/21 02:39:54;;;;;;;0.60;0.40;;;8.30;50.40;;;;;;5074180;28;20032;-82
2021/01/21 02:42:20;;;;;;;0.80;0.40;;;8.40;49.90;;;;;;5078310;28;20027;-82
2021/01/21 02:44:47;;;;;;;0.33;0.30;;;8.30;49.70;;;;;;5067512;28;20029;-82
2021/01/21 02:47:14;;;;;;;0.53;0.33;;;8.30;49.90;;;;;;5062053;28;20028;-82
2021/01/21 02:49:40;;;;;;;1.07;0.33;;;8.30;50.00;;;;;;5057518;28;20063;-82
2021/01/21 02:52:18;;;;;;;1.87;0.83;;;8.30;49.90;;;;;;5057821;28;20110;-82
2021/01/21 02:54:56;;;;;;;0.73;0.40;;;8.30;50.00;;;;;;5060016;28;20025;-82
2021/01/21 02:57:28;;;;;;;1.87;0.60;;;8.20;50.40;;;;;;5070401;28;20040;-82
2021/01/21 02:59:59;;;;;;;0.90;0.30;;;8.20;50.50;;;;;;5074707;28;20430;-82
2021/01/21 03:02:27;;;;;;;0.80;0.50;;;8.10;50.50;;;;;;5070582;28;20092;-83
2021/01/21 03:04:56;;;;;;;0.77;0.47;;;8.00;50.90;;;;;;5068788;28;20227;-83
2021/01/21 03:07:23;;;;;;;2.43;0.60;;;8.00;50.90;;;;;;5067725;28;20025;-82
2021/01/21 03:09:49;;;;;;;1.57;0.50;;;8.00;50.90;;;;;;5070487;28;20036;-82
2021/01/21 03:12:15;;;;;;;1.20;0.60;;;8.10;50.90;;;;;;5073769;28;20115;-82
2021/01/21 03:14:41;;;;;;;2.13;0.63;;;8.00;50.90;;;;;;5070932;28;20079;-82
2021/01/21 03:17:06;;;;;;;0.50;0.40;;;8.10;51.00;;;;;;5069363;28;20060;-82
2021/01/21 03:19:32;;;;;;;1.30;0.40;;;8.10;50.80;;;;;;5060684;28;20016;-82
2021/01/21 03:21:58;;;;;;;1.53;0.40;;;8.20;50.60;;;;;;5067348;28;20116;-82
2021/01/21 03:24:23;;;;;;;1.20;0.50;;;8.20;50.50;;;;;;5067111;28;20024;-82
2021/01/21 03:26:49;;;;;;;2.00;1.10;;;8.30;50.20;;;;;;5068089;28;20021;-82
2021/01/21 03:29:14;;;;;;;1.73;0.57;;;8.30;50.00;;;;;;5061937;28;20025;-82
2021/01/21 03:31:40;;;;;;;4.30;0.50;;;8.30;50.00;;;;;;5057768;28;20556;-83
2021/01/21 03:34:06;;;;;;;0.83;0.40;;;8.30;50.00;;;;;;5071212;28;20372;-82
2021/01/21 03:36:31;;;;;;;4.07;1.60;;;8.30;49.90;;;;;;5073154;28;20124;-82
2021/01/21 03:38:57;;;;;;;1.10;0.57;;;8.30;49.90;;;;;;5067404;28;20035;-82
2021/01/21 03:41:23;;;;;;;0.70;0.30;;;8.30;49.90;;;;;;5074127;28;20020;-82
2021/01/21 03:43:49;;;;;;;0.70;0.33;;;8.50;49.70;;;;;;5071531;28;20021;-81
2021/01/21 03:46:14;;;;;;;0.77;0.50;;;8.50;49.40;;;;;;5067751;28;20028;-81
2021/01/21 03:48:40;;;;;;;0.20;0.20;;;8.50;49.30;;;;;;5070294;28;20020;-81
2021/01/21 03:51:06;;;;;;;0.93;0.50;;;8.60;49.40;;;;;;5072188;28;20044;-81
2021/01/21 03:53:31;;;;;;;1.43;0.30;;;8.60;49.90;;;;;;5061724;28;20032;-81
2021/01/21 03:55:57;;;;;;;0.50;0.30;;;8.60;49.30;;;;;;5069730;28;20386;-82
2021/01/21 03:58:23;;;;;;;0.93;0.50;;;8.60;49.30;;;;;;5072288;28;20094;-82
2021/01/21 04:00:48;;;;;;;0.77;0.30;;;8.60;49.50;;;;;;5064074;28;20031;-82
2021/01/21 04:03:14;;;;;;;1.80;0.37;;;8.60;49.50;;;;;;5069970;28;20335;-82
2021/01/21 04:05:40;;;;;;;1.40;0.40;;;8.50;49.50;;;;;;5065507;28;20486;-82
2021/01/21 04:08:05;;;;;;;0.80;0.50;;;8.50;49.70;;;;;;5060124;28;20063;-82
2021/01/21 04:10:31;;;;;;;1.53;0.60;;;8.40;49.80;;;;;;5071462;28;20040;-82
2021/01/21 04:12:57;;;;;;;0.47;0.30;;;8.50;50.10;;;;;;5062352;28;20037;-82
2021/01/21 04:15:22;;;;;;;0.77;0.37;;;8.40;50.10;;;;;;5063277;28;20036;-82
2021/01/21 04:17:48;;;;;;;0.80;0.30;;;8.40;50.20;;;;;;5073514;28;20050;-82
2021/01/21 04:20:14;;;;;;;0.83;0.50;;;8.40;50.30;;;;;;5072309;28;20328;-82
2021/01/21 04:22:40;;;;;;;0.77;0.30;;;8.40;50.40;;;;;;5069231;28;20021;-82
2021/01/21 04:25:06;;;;;;;0.77;0.40;;;8.50;50.20;;;;;;5065700;28;20123;-82
2021/01/21 04:27:32;;;;;;;1.00;0.30;;;8.50;50.00;;;;;;5073677;28;20048;-82
2021/01/21 04:29:57;;;;;;;1.00;0.60;;;8.50;50.00;;;;;;5070827;28;20074;-82
2021/01/21 04:32:23;;;;;;;0.67;0.37;;;8.50;50.00;;;;;;5063181;28;20033;-82
2021/01/21 04:34:49;;;;;;;0.50;0.27;;;8.60;49.80;;;;;;5069893;28;20037;-82
2021/01/21 04:37:14;;;;;;;1.00;0.50;;;8.60;49.70;;;;;;5067897;28;20024;-83
2021/01/21 04:39:40;;;;;;;0.50;0.20;;;8.60;49.60;;;;;;5065276;28;20028;-82
2021/01/21 04:42:06;;;;;;;0.93;0.30;;;8.60;49.60;;;;;;5064375;28;20028;-82
2021/01/21 04:44:32;;;;;;;0.70;0.40;;;8.60;49.40;;;;;;5069220;28;20078;-82
2021/01/21 04:46:59;;;;;;;1.03;0.50;;;8.60;49.40;;;;;;5066664;28;21403;-82
2021/01/21 04:49:28;;;;;;;0.80;0.30;;;8.60;49.50;;;;;;5067846;28;20426;-82
2021/01/21 04:52:00;;;;;;;1.47;0.30;;;8.60;49.50;;;;;;5065763;28;20028;-82
2021/01/21 04:54:37;;;;;;;1.35;0.40;;;8.60;49.60;;;;;;5065019;28;20021;-82
2021/01/21 04:57:06;;;;;;;0.87;0.30;;;8.70;49.50;;;;;;5067035;28;20059;-82
2021/01/21 04:59:36;;;;;;;4.03;0.40;;;8.80;49.50;;;;;;5066627;28;20047;-82
2021/01/21 05:02:03;;;;;;;0.30;0.10;;;8.90;49.10;;;;;;5068784;28;20019;-82
2021/01/21 05:04:30;;;;;;;1.40;0.30;;;8.80;48.70;;;;;;5064231;28;20021;-82
2021/01/21 05:06:56;;;;;;;1.30;0.40;;;8.90;48.70;;;;;;5070058;28;20117;-82
2021/01/21 05:09:22;;;;;;;0.30;0.27;;;8.90;48.70;;;;;;5068115;28;20534;-82
2021/01/21 05:11:48;;;;;;;2.40;0.30;;;9.00;48.60;;;;;;5065313;28;20119;-82
2021/01/21 05:14:15;;;;;;;0.93;0.50;;;9.20;48.50;;;;;;5064104;28;20024;-82
2021/01/21 05:16:43;;;;;;;0.70;0.40;;;9.20;48.20;;;;;;5065836;28;20566;-82
2021/01/21 05:19:13;;;;;;;1.20;0.20;;;9.20;48.30;;;;;;5070161;28;20028;-82
2021/01/21 05:21:39;;;;;;;0.87;0.30;;;9.20;48.50;;;;;;5060124;28;20021;-82
2021/01/21 05:24:07;;;;;;;1.37;0.60;;;9.30;48.50;;;;;;5071709;28;20111;-82
2021/01/21 05:26:32;;;;;;;1.23;0.40;;;9.40;48.60;;;;;;5061477;28;20017;-82
2021/01/21 05:28:59;;;;;;;1.13;0.50;;;9.40;48.40;;;;;;5062210;28;20559;-82
2021/01/21 05:31:27;;;;;;;0.60;0.40;;;9.40;48.10;;;;;;5073054;28;20403;-82
2021/01/21 05:33:55;;;;;;;1.67;0.70;;;9.40;48.30;;;;;;5074238;28;20032;-82
2021/01/21 05:36:21;;;;;;;3.17;1.00;;;9.30;48.40;;;;;;5071765;28;20033;-82
2021/01/21 05:39:13;;;;;;;0.90;0.47;;;9.20;48.60;;;;;;5069112;28;20035;-82
2021/01/21 05:41:39;;;;;;;0.67;0.43;;;9.20;48.70;;;;;;5065317;28;20120;-82
2021/01/21 05:44:06;;;;;;;0.87;0.50;;;9.30;48.70;;;;;;5069958;28;20056;-82
2021/01/21 05:46:35;;;;;;;0.83;0.40;;;9.30;48.70;;;;;;5068611;28;20060;-82
2021/01/21 05:49:01;;;;;;;0.93;0.43;;;9.30;48.60;;;;;;5070587;28;20021;-82
2021/01/21 05:51:30;;;;;;;1.40;0.63;;;9.30;48.60;;;;;;5063449;28;20035;-82
2021/01/21 05:53:57;;;;;;;1.10;0.57;;;9.20;48.10;;;;;;5070959;28;20028;-82
2021/01/21 05:56:25;;;;;;;1.80;0.50;;;9.30;48.10;;;;;;5074064;28;20035;-82
2021/01/21 05:58:52;;;;;;;0.80;0.40;;;9.20;48.20;;;;;;5063706;28;20048;-82
2021/01/21 06:01:24;;;;;;;3.17;0.70;;;9.20;48.30;;;;;;5072607;28;20036;-82
2021/01/21 06:03:50;;;;;;;0.90;0.50;;;9.10;48.90;;;;;;5069663;28;20127;-82
2021/01/21 06:06:16;;;;;;;2.17;0.60;;;9.20;48.60;;;;;;5074062;28;20027;-82
2021/01/21 06:08:43;;;;;;;0.70;0.40;;;9.30;48.60;;;;;;5072455;28;20057;-82
2021/01/21 06:11:10;;;;;;;1.23;0.50;;;9.30;48.40;;;;;;5066073;28;20120;-82
2021/01/21 06:13:39;;;;;;;1.57;0.90;;;9.20;48.40;;;;;;5075416;28;20024;-82
2021/01/21 06:16:06;;;;;;;2.13;0.90;;;9.20;48.60;;;;;;5072382;28;20487;-82
2021/01/21 06:18:32;;;;;;;3.07;1.00;;;9.20;48.50;;;;;;5077865;28;20032;-82
2021/01/21 06:20:59;;;;;;;1.17;0.67;;;9.20;48.50;;;;;;5077039;28;20024;-83
2021/01/21 06:23:25;;;;;;;1.57;0.60;;;9.10;48.40;;;;;;5078655;28;20036;-83
2021/01/21 06:25:56;;;;;;;2.30;0.70;;;9.10;48.50;;;;;;5087076;28;20043;-83
2021/01/21 06:28:24;;;;;;;2.57;0.87;;;9.00;48.30;;;;;;5072213;28;20052;-83
2021/01/21 06:30:53;;;;;;;2.70;0.90;;;9.20;48.40;;;;;;5063414;28;20060;-83
2021/01/21 06:33:40;;;;;;;2.87;0.70;;;9.20;48.10;;;;;;5069325;28;20045;-82
2021/01/21 06:36:08;;;;;;;1.93;0.53;;;9.10;48.20;;;;;;5058675;28;20025;-82
2021/01/21 06:38:42;;;;;;;1.33;0.90;;;9.10;48.10;;;;;;5069795;28;20033;-82
2021/01/21 06:41:16;;;;;;;1.53;0.30;;;9.10;48.10;;;;;;5074509;28;20020;-82
2021/01/21 06:43:42;;;;;;;1.77;0.90;;;9.00;47.80;;;;;;5070893;28;20115;-82
2021/01/21 06:46:09;;;;;;;1.23;0.70;;;9.00;47.90;;;;;;5073617;28;20067;-82
2021/01/21 06:48:35;;;;;;;5.13;0.50;;;9.00;47.90;;;;;;5078984;28;20062;-82
2021/01/21 06:51:09;;;;;;;3.87;3.37;;;8.90;47.80;;;;;;5085790;28;20021;-82
2021/01/21 06:53:36;;;;;;;2.10;0.87;;;8.90;48.10;;;;;;5104428;28;20066;-82
2021/01/21 06:56:02;;;;;;;1.57;0.83;;;9.00;48.30;;;;;;5080851;28;21004;-82
2021/01/21 06:58:44;;;;;;;2.63;0.70;;;9.10;48.30;;;;;;5080177;28;20024;-81
2021/01/21 07:01:34;;;;;;;3.30;1.10;;;9.20;48.40;;;;;;5070064;28;20027;-82
2021/01/21 07:04:08;;;;;;;1.80;1.00;;;9.20;48.50;;;;;;5073261;28;20035;-82
2021/01/21 07:06:57;;;;;;;1.10;0.53;;;9.30;48.50;;;;;;5067829;28;20036;-82
2021/01/21 07:09:25;;;;;;;3.07;0.97;;;9.40;48.40;;;;;;5062513;28;20036;-82
2021/01/21 07:11:54;;;;;;;1.43;1.03;;;9.30;48.00;;;;;;5065329;28;20036;-82
2021/01/21 07:14:32;;;;;;;1.03;0.40;;;9.20;47.90;;;;;;5065967;28;20078;-82
2021/01/21 07:17:04;;;;;;;1.30;0.57;;;9.10;47.90;;;;;;5057931;28;20059;-82
2021/01/21 07:19:47;;;;;;;1.30;0.60;;;9.20;47.70;;;;;;5069008;28;20393;-82
2021/01/21 07:22:17;;;;;;;;;;;9.10;47.60;;;;;;5061814;28;20035;-82
2021/01/21 07:24:53;;;;;;;1.00;0.60;;;9.10;47.70;;;;;;5066492;28;19916;-81
2021/01/21 07:27:20;;;;;;;3.23;0.80;;;9.00;48.10;;;;;;5068442;28;20107;-82
2021/01/21 07:29:46;;;;;;;0.97;0.50;;;9.00;47.50;;;;;;5056683;28;20021;-82
2021/01/21 07:32:12;;;;;;;1.03;0.60;;;9.10;47.50;;;;;;5072314;28;20031;-82
2021/01/21 07:34:42;;;;;;;2.47;0.90;;;9.10;47.50;;;;;;5072016;28;20083;-82
2021/01/21 07:37:44;;;;;;;3.20;1.47;;;9.10;47.40;;;;;;5058008;28;20025;-82
2021/01/21 07:40:11;;;;;;;3.27;1.30;;;9.20;47.40;;;;;;5067393;28;20017;-82
2021/01/21 07:42:37;;;;;;;3.10;1.40;;;9.20;47.30;;;;;;5067595;28;20079;-82
2021/01/21 07:45:14;;;;;;;2.53;1.30;;;9.20;47.40;;;;;;5063509;28;20377;-82
2021/01/21 07:47:41;;;;;;;4.13;1.77;;;9.20;47.50;;;;;;5066100;28;20032;-82
2021/01/21 07:50:16;;;;;;;1.23;0.90;;;9.10;47.50;;;;;;5061813;28;20028;-82
2021/01/21 07:52:43;;;;;;;4.20;1.53;;;9.10;47.50;;;;;;5063533;28;20017;-82
2021/01/21 07:55:10;;;;;;;2.40;1.30;;;9.00;47.60;;;;;;5074638;28;20024;-82
2021/01/21 07:57:35;;;;;;;2.33;1.17;;;9.10;48.10;;;;;;5063798;28;20504;-82
2021/01/21 08:00:05;;;;;;;4.07;1.70;;;9.10;48.00;;;;;;5064266;28;20144;-82
2021/01/21 08:03:00;;;;;;;1.70;0.87;;;9.10;48.10;;;;;;5070395;28;20021;-82
2021/01/21 08:05:26;;;;;;;2.50;1.37;;;9.10;48.10;;;;;;5053805;28;20132;-82
2021/01/21 08:07:56;;;;;;;3.83;1.53;;;9.10;47.90;;;;;;5061565;28;20104;-82
2021/01/21 08:10:29;;;;;;;5.47;1.70;;;9.10;48.10;;;;;;5058720;28;20091;-82
2021/01/21 08:12:57;;;;;;;3.30;1.17;;;9.10;47.80;;;;;;5061669;28;20037;-82
2021/01/21 08:15:24;;;;;;;3.73;1.63;;;9.10;48.50;;;;;;5064207;28;20576;-82
2021/01/21 08:17:51;;;;;;;1.87;1.00;;;9.10;47.70;;;;;;5062665;28;20645;-83
2021/01/21 08:20:18;;;;;;;2.73;1.17;;;9.30;47.80;;;;;;5056964;28;20585;-82
2021/01/21 08:23:03;;;;;;;1.83;1.00;;;9.30;47.50;;;;;;5066035;28;20100;-82
2021/01/21 08:25:47;;;;;;;1.97;1.17;;;9.40;47.60;;;;;;5063263;28;20100;-82
2021/01/21 08:28:31;;;;;;;1.80;1.07;;;9.40;47.60;;;;;;5072401;28;20478;-82
2021/01/21 08:30:57;;;;;;;2.10;0.80;;;9.50;47.70;;;;;;5071325;28;20124;-82
2021/01/21 08:33:26;;;;;;;3.20;1.20;;;9.50;47.70;;;;;;5075833;28;20056;-83
2021/01/21 08:36:04;;;;;;;2.30;0.90;;;9.50;47.70;;;;;;5059164;28;20036;-83
2021/01/21 08:38:37;;;;;;;2.17;1.10;;;9.70;47.70;;;;;;5070428;28;20045;-82
2021/01/21 08:41:07;;;;;;;1.20;0.60;;;9.80;47.60;;;;;;5068091;28;20040;-83
2021/01/21 08:43:41;;;;;;;1.73;0.90;;;9.90;47.60;;;;;;5069206;28;20115;-83
2021/01/21 08:46:20;;;;;;;2.67;1.00;;;10.00;47.30;;;;;;5068580;28;20056;-83
2021/01/21 08:48:50;;;;;;;2.33;1.17;;;10.00;47.00;;;;;;5062533;28;20064;-82
2021/01/21 08:51:37;;;;;;;3.23;1.63;;;10.10;46.80;;;;;;5062888;28;20024;-82
2021/01/21 08:54:23;;;;;;;1.67;0.90;;;10.10;46.50;;;;;;5054246;28;20024;-83
2021/01/21 08:57:09;;;;;;;2.50;1.20;;;10.00;46.40;;;;;;5065773;28;20062;-82
2021/01/21 08:59:35;;;;;;;3.43;1.53;;;10.00;46.50;;;;;;5061997;28;20555;-82
2021/01/21 09:02:03;;;;;;;3.83;1.70;;;10.10;46.50;;;;;;5060307;28;20021;-82
2021/01/21 09:04:38;;;;;;;4.53;1.60;;;10.10;46.30;;;;;;5062064;28;20104;-82
2021/01/21 09:07:06;;;;;;;5.43;1.97;;;10.20;46.10;;;;;;5055733;28;20039;-82
2021/01/21 09:09:33;;;;;;;6.10;2.57;;;10.40;46.00;;;;;;5068340;28;20468;-83
2021/01/21 09:12:19;;;;;;;2.23;0.93;;;10.40;45.80;;;;;;5065563;28;20036;-82
2021/01/21 09:15:16;;;;;;;3.73;0.87;;;10.40;45.70;;;;;;5070044;28;20372;-82
2021/01/21 09:17:42;;;;;;;5.93;1.57;;;10.50;45.70;;;;;;5066176;28;20029;-82
2021/01/21 09:20:24;;;;;;;2.47;0.90;;;10.60;45.40;;;;;;5067006;28;20028;-81
2021/01/21 09:22:50;;;;;;;4.90;0.90;;;10.80;45.20;;;;;;5061779;28;20089;-81
2021/01/21 09:25:26;;;;;;;1.83;0.90;;;10.80;45.10;;;;;;5055767;28;20024;-81
2021/01/21 09:27:57;;;;;;;2.47;1.10;;;10.80;45.00;;;;;;5060158;28;20055;-81
2021/01/21 09:30:26;;;;;;;1.83;1.03;;;10.90;44.90;;;;;;5064870;28;20048;-81
2021/01/21 09:32:52;;;;;;;3.70;2.10;;;10.90;44.80;;;;;;5066641;28;20021;-81
2021/01/21 09:35:23;;;;;;;4.37;2.23;;;10.90;44.70;;;;;;5058792;28;20025;-81
2021/01/21 09:37:51;;;;;;;3.33;1.07;;;10.90;44.60;;;;;;5056510;28;20029;-81
2021/01/21 09:40:24;;;;;;;3.67;1.37;;;11.00;45.10;;;;;;5069221;28;20020;-81
2021/01/21 09:42:55;;;;;;;3.20;1.20;;;10.90;44.30;;;;;;5060967;28;20454;-81
2021/01/21 09:45:22;;;;;;;4.37;1.10;;;10.90;44.00;;;;;;5064625;28;20728;-81
2021/01/21 09:47:51;;;;;;;1.77;1.03;;;11.10;44.10;;;;;;5060426;28;20037;-81
2021/01/21 09:50:18;;;;;;;1.50;0.80;;;11.50;43.90;;;;;;5064946;28;20031;-81
2021/01/21 09:52:44;;;;;;;4.57;1.10;;;11.90;43.20;;;;;;5069366;28;20055;-81
2021/01/21 09:55:10;;;;;;;2.83;1.00;;;12.30;42.50;;;;;;5070395;28;20044;-81
2021/01/21 09:57:40;;;;;;;3.70;0.80;;;12.30;42.00;;;;;;5067314;28;20540;-81
2021/01/21 10:00:07;;;;;;;2.57;0.90;;;12.20;41.90;;;;;;5064532;28;20017;-81
2021/01/21 10:02:33;;;;;;;2.00;0.70;;;12.00;42.20;;;;;;5067816;28;20028;-82
2021/01/21 10:04:59;;;;;;;1.87;1.00;;;11.90;42.20;;;;;;5065808;28;20116;-82
2021/01/21 10:07:25;;;;;;;1.73;0.87;;;11.80;42.40;;;;;;5071579;28;20024;-82
2021/01/21 10:09:50;;;;;;;1.23;0.90;;;11.80;42.50;;;;;;5071980;28;20056;-82
2021/01/21 10:12:16;;;;;;;2.23;0.80;;;11.90;42.10;;;;;;5063919;28;20428;-82
2021/01/21 10:14:42;;;;;;;3.80;1.67;;;11.90;42.00;;;;;;5068038;28;20035;-82
2021/01/21 10:17:08;;;;;;;3.97;1.00;;;11.80;42.40;;;;;;5064897;28;20029;-82
2021/01/21 10:19:35;;;;;;;4.60;0.87;;;11.80;42.50;;;;;;5067156;28;20407;-82
2021/01/21 10:22:01;;;;;;;1.07;0.70;;;11.80;42.50;;;;;;5067298;28;20028;-82
2021/01/21 10:24:28;;;;;;;2.87;0.80;;;11.90;42.60;;;;;;5063432;28;20024;-81
2021/01/21 10:26:53;;;;;;;1.33;0.63;;;12.20;42.10;;;;;;5068118;28;20025;-81
2021/01/21 10:29:19;;;;;;;3.50;1.10;;;12.20;41.80;;;;;;5051427;28;20036;-81
2021/01/21 10:31:45;;;;;;;5.87;1.20;;;12.50;41.70;;;;;;5071586;28;20083;-82
2021/01/21 10:34:11;;;;;;;1.77;0.80;;;12.90;41.40;;;;;;5065273;28;20090;-82
2021/01/21 10:36:37;;;;;;;3.50;0.80;;;13.30;40.50;;;;;;5062804;28;20422;-82
2021/01/21 10:39:04;;;;;;;2.03;1.00;;;13.50;40.50;;;;;;5056711;28;20029;-82
2021/01/21 10:41:30;;;;;;;2.87;0.70;;;13.70;39.80;;;;;;5067603;28;20035;-82
2021/01/21 10:43:56;;;;;;;3.03;0.87;;;13.50;39.30;;;;;;5067789;28;20029;-82
2021/01/21 10:46:22;;;;;;;1.80;0.90;;;13.40;39.60;;;;;;5062362;28;20040;-83
2021/01/21 10:48:48;;;;;;;3.10;1.23;;;13.40;39.60;;;;;;5061124;28;20056;-82
2021/01/21 10:51:14;;;;;;;2.67;1.07;;;13.50;39.80;;;;;;5068575;28;20037;-82
2021/01/21 10:53:40;;;;;;;2.30;1.00;;;13.60;39.70;;;;;;5063270;28;20040;-82
2021/01/21 10:56:06;;;;;;;2.50;0.80;;;13.50;39.60;;;;;;5073547;28;20028;-82
2021/01/21 10:58:32;;;;;;;3.67;1.00;;;13.30;39.50;;;;;;5059629;28;20055;-82
2021/01/21 11:00:57;;;;;;;3.57;1.60;;;13.20;39.40;;;;;;5067691;28;20021;-82
2021/01/21 11:03:23;;;;;;;1.60;0.90;;;13.30;39.50;;;;;;5063147;28;20025;-82
2021/01/21 11:05:49;;;;;;;2.33;1.47;;;13.40;39.40;;;;;;5069491;28;20074;-82
2021/01/21 11:08:14;;;;;;;1.83;0.90;;;13.40;39.30;;;;;;5074012;28;20032;-82
2021/01/21 11:10:41;;;;;;;3.33;1.10;;;13.20;39.10;;;;;;5062227;28;20112;-82
2021/01/21 11:13:08;;;;;;;2.13;0.77;;;13.20;39.30;;;;;;5069092;28;20025;-82
2021/01/21 11:15:34;;;;;;;3.47;1.20;;;13.10;39.30;;;;;;5070913;28;20085;-82
2021/01/21 11:18:00;;;;;;;3.40;0.87;;;13.00;39.20;;;;;;5071772;28;20033;-83
2021/01/21 11:20:28;;;;;;;3.13;1.10;;;13.00;39.30;;;;;;5062972;28;20025;-82
2021/01/21 11:22:54;;;;;;;5.07;1.43;;;13.00;39.70;;;;;;5060656;28;20024;-83
2021/01/21 11:25:20;;;;;;;3.80;1.50;;;13.00;39.80;;;;;;5071079;28;20029;-82
2021/01/21 11:27:45;;;;;;;4.27;0.77;;;13.00;39.60;;;;;;5072387;28;20092;-82
2021/01/21 11:30:12;;;;;;;2.50;1.13;;;13.00;40.10;;;;;;5071613;28;20075;-82
2021/01/21 11:32:39;;;;;;;2.43;0.90;;;12.90;39.90;;;;;;5064174;28;20086;-82
2021/01/21 11:35:06;;;;;;;2.27;0.80;;;12.90;39.90;;;;;;5066568;28;20064;-82
2021/01/21 11:37:32;;;;;;;2.03;0.60;;;12.90;40.00;;;;;;5065678;28;20024;-82
2021/01/21 11:39:58;;;;;;;1.63;0.60;;;12.90;39.80;;;;;;5071189;28;20061;-82
2021/01/21 11:42:24;;;;;;;1.37;0.67;;;12.80;39.80;;;;;;5056857;28;20472;-82
2021/01/21 11:44:50;;;;;;;0.70;0.40;;;12.80;39.70;;;;;;5071494;28;20032;-82
2021/01/21 11:47:17;;;;;;;1.90;0.70;;;12.70;39.70;;;;;;5067999;28;20104;-82
2021/01/21 11:49:43;;;;;;;3.30;0.70;;;12.80;39.70;;;;;;5072229;28;20035;-82
2021/01/21 11:52:09;;;;;;;1.33;0.60;;;12.70;39.60;;;;;;5075122;28;20021;-82
2021/01/21 11:54:34;;;;;;;1.77;0.90;;;12.80;39.60;;;;;;5076781;28;20025;-82
2021/01/21 11:57:00;;;;;;;2.00;0.70;;;12.80;39.60;;;;;;5073310;28;20032;-82
2021/01/21 11:59:26;;;;;;;1.20;0.70;;;12.80;39.50;;;;;;5073790;28;20107;-82
2021/01/21 12:01:53;;;;;;;1.20;0.70;;;12.80;39.50;;;;;;5060338;28;20114;-82
2021/01/21 12:04:18;;;;;;;5.13;0.77;;;12.80;39.50;;;;;;5065335;28;20751;-82
2021/01/21 12:06:44;;;;;;;1.83;0.90;;;12.80;39.70;;;;;;5074757;28;20090;-82
2021/01/21 12:09:10;;;;;;;2.27;0.60;;;12.70;39.80;;;;;;5067865;28;20051;-82
2021/01/21 12:11:36;;;;;;;1.27;0.60;;;12.70;39.90;;;;;;5074910;28;20074;-82
2021/01/21 12:14:02;;;;;;;2.40;0.67;;;12.80;40.00;;;;;;5060695;28;20665;-82
2021/01/21 12:16:28;;;;;;;2.63;1.03;;;12.80;40.00;;;;;;5075201;28;20483;-82
2021/01/21 12:18:57;;;;;;;1.53;0.80;;;12.80;39.80;;;;;;5074849;28;20021;-82
2021/01/21 12:21:23;;;;;;;5.73;1.80;;;12.80;39.80;;;;;;5081651;28;20107;-82
2021/01/21 12:23:49;;;;;;;8.97;3.83;;;12.80;39.80;;;;;;5084964;28;20495;-82
2021/01/21 12:26:15;;;;;;;2.97;1.10;;;12.90;39.90;;;;;;5074982;28;20120;-82
2021/01/21 12:28:41;;;;;;;3.63;0.60;;;13.00;40.00;;;;;;5067011;28;20029;-82
2021/01/21 12:31:07;;;;;;;2.83;0.90;;;13.10;39.70;;;;;;5055157;28;20043;-83
2021/01/21 12:33:33;;;;;;;0.90;0.50;;;13.10;39.70;;;;;;5066556;28;20115;-82
2021/01/21 12:36:00;;;;;;;2.73;0.57;;;13.20;39.80;;;;;;5072638;28;20025;-82
2021/01/21 12:38:25;;;;;;;0.60;0.40;;;13.30;39.70;;;;;;5065992;28;20025;-82
2021/01/21 12:40:52;;;;;;;1.10;0.50;;;13.50;39.40;;;;;;5061783;28;20485;-82
2021/01/21 12:43:20;;;;;;;2.70;0.70;;;13.60;39.50;;;;;;5058564;28;20463;-82
2021/01/21 12:45:47;;;;;;;2.27;0.80;;;13.70;38.90;;;;;;5069844;28;20055;-82
2021/01/21 12:48:13;;;;;;;4.77;0.73;;;13.80;38.90;;;;;;5067563;28;20106;-82
2021/01/21 12:50:39;;;;;;;2.40;0.70;;;13.80;38.60;;;;;;5058912;28;20491;-82
2021/01/21 12:53:05;;;;;;;2.17;0.50;;;14.00;38.40;;;;;;5067886;28;20036;-82
2021/01/21 12:55:34;;;;;;;5.70;2.13;;;14.10;38.10;;;;;;5073359;28;20032;-82
2021/01/21 12:58:00;;;;;;;8.60;1.33;;;14.20;37.70;;;;;;5067033;28;20056;-81
2021/01/21 13:00:27;;;;;;;1.20;0.33;;;14.30;37.60;;;;;;5065915;28;20451;-82